Time;durP1;ratioP1;P1;durP2;ratioP2;P2;SDS_P1;SDS_P2;PMS_P1;PMS_P2;Temp;Humidity;BMP_temperature;BMP_pressure;BME280_temperature;BME280_humidity;BME280_pressure;Samples;Min_cycle;Max_cycle;Signal;HPM_P1;HPM_P2
2021/05/11 00:00:47;;;;;;;1.83;0.93;;;13.50;91.90;;;;;;6188009;23;20024;-85
2021/05/11 00:03:14;;;;;;;1.88;0.70;;;13.60;92.00;;;;;;6196671;23;20021;-87
2021/05/11 00:05:41;;;;;;;2.13;0.95;;;13.60;91.90;;;;;;6193632;23;20197;-87
2021/05/11 00:08:09;;;;;;;5.47;1.08;;;13.50;91.80;;;;;;6195842;23;20029;-87
2021/05/11 00:10:37;;;;;;;2.80;1.10;;;13.60;91.80;;;;;;6192940;23;20308;-88
2021/05/11 00:13:10;;;;;;;2.58;0.98;;;13.60;91.90;;;;;;6214235;23;20055;-88
2021/05/11 00:15:38;;;;;;;2.35;0.90;;;13.70;91.70;;;;;;6189663;23;20029;-83
2021/05/11 00:18:06;;;;;;;3.28;1.30;;;13.70;91.60;;;;;;6165104;23;20075;-86
2021/05/11 00:20:34;;;;;;;2.95;1.30;;;13.70;91.50;;;;;;6182981;23;20025;-85
2021/05/11 00:23:01;;;;;;;3.00;1.20;;;13.60;91.50;;;;;;6192901;23;20345;-87
2021/05/11 00:25:31;;;;;;;4.55;1.63;;;13.60;91.50;;;;;;6194190;23;20028;-86
2021/05/11 00:28:11;;;;;;;2.95;1.42;;;13.60;91.60;;;;;;6190611;23;20076;-87
2021/05/11 00:30:41;;;;;;;2.10;1.15;;;13.60;91.50;;;;;;6167456;23;20021;-87
2021/05/11 00:33:10;;;;;;;3.60;1.40;;;13.60;91.60;;;;;;6193151;23;20296;-83
2021/05/11 00:35:37;;;;;;;3.92;1.83;;;13.50;91.50;;;;;;6194630;23;20071;-86
2021/05/11 00:38:08;;;;;;;3.88;1.50;;;13.50;91.80;;;;;;6167645;23;20017;-87
2021/05/11 00:40:36;;;;;;;6.35;1.83;;;13.40;91.80;;;;;;6166187;23;20244;-86
2021/05/11 00:43:08;;;;;;;2.97;1.33;;;13.40;92.00;;;;;;6193345;23;20021;-86
2021/05/11 00:45:37;;;;;;;2.92;1.25;;;13.50;92.00;;;;;;6195258;23;20067;-84
2021/05/11 00:48:05;;;;;;;3.67;1.77;;;13.50;91.90;;;;;;6192766;23;20181;-87
2021/05/11 00:50:32;;;;;;;4.75;1.50;;;13.60;91.70;;;;;;6192877;23;20039;-85
2021/05/11 00:52:59;;;;;;;3.97;2.10;;;13.50;91.60;;;;;;6191803;23;20021;-86
2021/05/11 00:55:30;;;;;;;3.50;1.60;;;13.50;91.90;;;;;;6191225;23;20283;-87
2021/05/11 00:57:57;;;;;;;8.43;2.05;;;13.50;91.70;;;;;;6189467;23;20048;-84
2021/05/11 01:00:24;;;;;;;4.32;2.05;;;13.50;91.90;;;;;;6183172;23;20218;-87
2021/05/11 01:02:52;;;;;;;3.75;1.65;;;13.40;91.90;;;;;;6188473;23;20029;-87
2021/05/11 01:05:20;;;;;;;4.82;1.90;;;13.50;91.90;;;;;;6192982;23;20025;-86
2021/05/11 01:07:48;;;;;;;3.60;1.80;;;13.40;92.10;;;;;;6193015;23;20048;-84
2021/05/11 01:10:15;;;;;;;3.47;1.48;;;13.40;92.00;;;;;;6190372;23;20017;-86
2021/05/11 01:12:42;;;;;;;6.80;1.83;;;13.40;92.00;;;;;;6190598;23;20240;-87
2021/05/11 01:15:10;;;;;;;3.30;1.65;;;13.40;92.10;;;;;;6190374;23;20076;-85
2021/05/11 01:17:38;;;;;;;4.60;1.73;;;13.40;92.10;;;;;;6191473;23;20212;-87
2021/05/11 01:20:14;;;;;;;3.55;1.83;;;13.40;92.20;;;;;;6193136;23;20067;-84
2021/05/11 01:23:02;;;;;;;6.18;2.30;;;13.40;91.80;;;;;;6193943;23;20032;-84
2021/05/11 01:25:32;;;;;;;7.45;3.13;;;13.40;92.20;;;;;;6172308;23;20076;-85
2021/05/11 01:28:09;;;;;;;4.82;2.50;;;13.40;92.30;;;;;;6196425;23;20067;-84
2021/05/11 01:47:25;;;;;;;7.85;4.30;;;13.30;93.50;;;;;;6162117;23;20025;-87
2021/05/11 01:52:47;;;;;;;6.50;3.13;;;13.40;93.40;;;;;;6161340;23;20053;-87
2021/05/11 01:58:41;;;;;;;7.47;3.67;;;13.40;93.40;;;;;;6192276;23;20024;-85
2021/05/11 02:18:06;;;;;;;6.97;3.00;;;13.20;92.60;;;;;;6194949;23;20017;-87
2021/05/11 02:23:24;;;;;;;10.18;4.05;;;13.10;93.30;;;;;;6194177;23;20031;-87
2021/05/11 02:25:50;;;;;;;9.23;3.83;;;13.20;93.40;;;;;;6166859;23;20043;-85
2021/05/11 02:28:19;;;;;;;10.30;4.05;;;13.20;93.30;;;;;;6188570;23;20379;-85
2021/05/11 02:30:48;;;;;;;12.45;5.38;;;13.20;93.10;;;;;;6191972;23;20025;-85
2021/05/11 02:33:16;;;;;;;9.60;4.50;;;13.10;93.10;;;;;;6192224;23;20025;-86
2021/05/11 02:35:43;;;;;;;12.27;5.05;;;13.10;93.50;;;;;;6192981;23;20044;-82
2021/05/11 02:38:13;;;;;;;10.43;4.35;;;13.10;93.70;;;;;;6167220;23;20268;-84
2021/05/11 02:40:42;;;;;;;7.85;4.22;;;13.00;93.90;;;;;;6192423;23;20395;-84
2021/05/11 02:43:20;;;;;;;10.38;4.68;;;13.00;94.20;;;;;;6216881;23;20029;-83
2021/05/11 02:45:49;;;;;;;10.80;4.85;;;13.00;94.40;;;;;;6193300;23;20025;-82
2021/05/11 02:48:17;;;;;;;9.60;4.45;;;13.00;94.30;;;;;;6191671;23;20072;-87
2021/05/11 02:50:52;;;;;;;10.98;5.05;;;13.00;94.40;;;;;;6168837;23;20074;-86
2021/05/11 02:53:19;;;;;;;11.05;5.57;;;13.00;94.30;;;;;;6192834;23;20021;-86
2021/05/11 02:55:47;;;;;;;8.90;4.90;;;12.90;94.40;;;;;;6194208;23;20288;-85
2021/05/11 02:58:14;;;;;;;13.88;5.60;;;13.10;94.10;;;;;;6217318;23;20060;-86
2021/05/11 03:00:42;;;;;;;17.27;5.82;;;12.90;94.00;;;;;;6189496;23;20055;-86
2021/05/11 03:03:10;;;;;;;14.60;5.88;;;12.90;94.50;;;;;;6193585;23;20013;-85
2021/05/11 03:05:37;;;;;;;14.40;6.50;;;12.80;94.70;;;;;;6193958;23;20032;-86
2021/05/11 03:08:04;;;;;;;16.30;6.10;;;12.80;94.80;;;;;;6193039;23;20028;-83
2021/05/11 03:10:31;;;;;;;13.60;6.22;;;12.80;94.80;;;;;;6190974;23;20037;-84
2021/05/11 03:12:59;;;;;;;12.68;5.53;;;12.80;95.00;;;;;;6194394;23;20351;-87
2021/05/11 03:15:26;;;;;;;13.10;5.70;;;12.90;95.00;;;;;;6192442;23;20406;-85
2021/05/11 03:17:53;;;;;;;11.60;5.75;;;12.80;95.00;;;;;;6191402;23;20028;-87
2021/05/11 03:20:21;;;;;;;10.90;4.97;;;12.90;94.80;;;;;;6191230;23;20017;-85
2021/05/11 03:22:48;;;;;;;9.82;4.97;;;13.00;94.50;;;;;;6191259;23;20277;-84
2021/05/11 03:25:16;;;;;;;12.75;5.53;;;13.10;94.10;;;;;;6191497;23;20017;-86
2021/05/11 03:27:43;;;;;;;14.77;5.80;;;13.00;94.20;;;;;;6191287;23;20164;-86
2021/05/11 03:30:11;;;;;;;13.32;5.78;;;12.90;94.30;;;;;;6192555;23;20016;-88
2021/05/11 03:32:39;;;;;;;11.48;5.85;;;12.90;94.40;;;;;;6194678;23;20025;-84
2021/05/11 03:35:07;;;;;;;13.88;5.78;;;12.90;94.40;;;;;;6193904;23;20062;-85
2021/05/11 03:37:35;;;;;;;13.05;5.72;;;12.90;94.30;;;;;;6192561;23;20021;-85
2021/05/11 03:40:05;;;;;;;11.82;5.82;;;12.90;94.50;;;;;;6166101;23;20017;-86
2021/05/11 03:42:35;;;;;;;11.63;6.10;;;12.90;94.40;;;;;;6165291;23;20032;-85
2021/05/11 03:45:07;;;;;;;15.63;6.72;;;12.90;94.50;;;;;;6189067;23;20027;-85
2021/05/11 03:47:39;;;;;;;12.43;6.03;;;12.90;94.60;;;;;;6188133;23;20025;-86
2021/05/11 03:50:06;;;;;;;11.55;6.00;;;12.90;94.50;;;;;;6165107;23;20056;-86
2021/05/11 03:52:33;;;;;;;11.57;5.63;;;12.90;94.60;;;;;;6192124;23;20236;-84
2021/05/11 03:55:01;;;;;;;12.65;6.00;;;12.80;94.60;;;;;;6192093;23;20029;-83
2021/05/11 03:57:28;;;;;;;15.15;5.75;;;12.80;94.70;;;;;;6191176;23;20017;-83
2021/05/11 03:59:55;;;;;;;13.98;6.65;;;12.90;94.60;;;;;;6166387;23;20020;-84
2021/05/11 04:02:22;;;;;;;13.13;6.35;;;12.80;94.30;;;;;;6185627;23;20029;-86
2021/05/11 04:04:50;;;;;;;11.30;4.95;;;12.90;94.60;;;;;;6192802;23;20025;-85
2021/05/11 04:07:17;;;;;;;14.45;6.00;;;12.90;94.40;;;;;;6168136;23;20048;-85
2021/05/11 04:09:47;;;;;;;11.48;5.55;;;13.00;94.50;;;;;;6168571;23;20028;-86
2021/05/11 04:17:45;;;;;;;10.27;5.03;;;13.10;94.30;;;;;;6168838;23;20017;-86
2021/05/11 04:20:14;;;;;;;11.10;5.60;;;13.10;94.20;;;;;;6194248;23;20292;-87
2021/05/11 04:22:41;;;;;;;11.23;5.75;;;13.10;94.10;;;;;;6192611;23;20025;-86
2021/05/11 04:25:08;;;;;;;10.82;5.32;;;13.10;93.90;;;;;;6194132;23;20017;-87
2021/05/11 04:27:36;;;;;;;12.13;5.70;;;13.00;93.70;;;;;;6193512;23;20200;-86
2021/05/11 04:30:04;;;;;;;12.02;5.55;;;12.90;94.00;;;;;;6167963;23;20071;-86
2021/05/11 04:32:33;;;;;;;11.10;5.68;;;13.00;94.10;;;;;;6194127;23;20568;-87
2021/05/11 04:35:00;;;;;;;11.10;5.18;;;13.00;94.10;;;;;;6168335;23;20025;-84
2021/05/11 04:37:28;;;;;;;10.25;4.75;;;13.00;94.20;;;;;;6192698;23;20029;-86
2021/05/11 04:39:56;;;;;;;10.98;5.28;;;13.10;94.10;;;;;;6141859;23;20032;-84
2021/05/11 04:42:23;;;;;;;10.38;5.03;;;13.10;94.00;;;;;;6165212;23;20017;-86
2021/05/11 04:44:53;;;;;;;13.05;5.90;;;13.10;94.10;;;;;;6166483;23;20204;-87
2021/05/11 04:47:27;;;;;;;12.35;6.18;;;13.10;94.10;;;;;;6192131;23;20307;-84
2021/05/11 04:49:55;;;;;;;10.40;4.95;;;13.20;93.90;;;;;;6191178;23;20028;-86
2021/05/11 04:52:22;;;;;;;13.93;5.70;;;13.20;93.90;;;;;;6166736;23;20052;-86
2021/05/11 04:54:49;;;;;;;11.05;5.85;;;13.30;93.80;;;;;;6192852;23;20021;-86
2021/05/11 04:57:17;;;;;;;13.23;6.63;;;13.40;93.70;;;;;;6192396;23;20234;-85
2021/05/11 04:59:44;;;;;;;12.45;4.95;;;13.50;93.40;;;;;;6191835;23;20374;-82
2021/05/11 05:02:13;;;;;;;12.45;6.20;;;13.60;93.00;;;;;;6187727;23;20025;-85
2021/05/11 05:04:40;;;;;;;11.52;5.80;;;13.70;92.60;;;;;;6190769;23;20027;-83
2021/05/11 05:07:07;;;;;;;14.02;6.50;;;13.70;92.80;;;;;;6164029;23;20044;-84
2021/05/11 05:09:34;;;;;;;9.50;4.82;;;13.80;92.90;;;;;;6191373;23;20025;-87
2021/05/11 05:12:01;;;;;;;11.75;5.40;;;13.80;92.50;;;;;;6189407;23;20339;-87
2021/05/11 05:14:31;;;;;;;21.67;6.57;;;13.90;92.20;;;;;;6191410;23;20040;-87
2021/05/11 05:16:58;;;;;;;11.10;5.30;;;14.00;91.90;;;;;;6189278;23;20029;-86
2021/05/11 05:19:26;;;;;;;12.43;5.85;;;14.10;91.90;;;;;;6164901;23;20025;-85
2021/05/11 05:21:53;;;;;;;11.80;5.80;;;14.40;91.10;;;;;;6191917;23;20024;-84
2021/05/11 05:24:24;;;;;;;12.13;5.75;;;14.60;90.00;;;;;;6190817;23;20021;-86
2021/05/11 05:26:53;;;;;;;13.43;5.88;;;14.80;89.60;;;;;;6191233;23;20028;-86
2021/05/11 05:29:21;;;;;;;11.07;5.30;;;14.90;88.90;;;;;;6190756;23;20031;-85
2021/05/11 05:31:48;;;;;;;9.95;5.43;;;15.10;88.30;;;;;;6191767;23;20029;-84
2021/05/11 05:34:16;;;;;;;11.48;5.65;;;15.10;88.00;;;;;;6164868;23;20043;-84
2021/05/11 05:36:44;;;;;;;10.93;5.15;;;15.00;87.40;;;;;;6194838;23;20029;-86
2021/05/11 05:39:12;;;;;;;11.25;5.07;;;15.00;87.80;;;;;;6195472;23;20069;-83
2021/05/11 05:41:39;;;;;;;11.23;5.45;;;14.80;88.00;;;;;;6167409;23;20112;-86
2021/05/11 05:44:07;;;;;;;10.63;4.65;;;14.90;88.10;;;;;;6167565;23;20424;-85
2021/05/11 05:46:34;;;;;;;10.02;5.07;;;14.90;88.00;;;;;;6166588;23;20035;-86
2021/05/11 05:49:09;;;;;;;9.10;4.57;;;14.80;87.70;;;;;;6190992;23;20029;-87
2021/05/11 05:51:38;;;;;;;9.90;5.00;;;14.90;87.50;;;;;;6165014;23;20029;-86
2021/05/11 05:54:06;;;;;;;9.98;5.13;;;14.70;87.60;;;;;;6168643;23;20036;-84
2021/05/11 05:56:34;;;;;;;11.32;5.47;;;14.90;87.70;;;;;;6193841;23;20029;-84
2021/05/11 05:59:02;;;;;;;8.40;4.38;;;14.90;88.10;;;;;;6165985;23;20041;-88
2021/05/11 06:01:29;;;;;;;9.10;4.80;;;14.80;88.20;;;;;;6176743;23;20281;-86
2021/05/11 06:04:09;;;;;;;9.40;4.80;;;14.70;88.30;;;;;;6140350;23;20082;-86
2021/05/11 06:06:36;;;;;;;9.43;4.57;;;14.60;88.00;;;;;;6166063;23;20120;-87
2021/05/11 06:09:12;;;;;;;10.52;4.32;;;14.80;87.90;;;;;;6139480;23;20066;-87
2021/05/11 06:11:43;;;;;;;9.60;4.47;;;14.70;88.20;;;;;;6138787;23;20119;-85
2021/05/11 06:14:16;;;;;;;8.93;4.57;;;14.90;87.90;;;;;;6114834;23;20037;-87
2021/05/11 06:17:13;;;;;;;9.30;4.28;;;14.90;87.40;;;;;;6139411;23;20056;-87
2021/05/11 06:19:41;;;;;;;9.32;4.47;;;14.80;88.20;;;;;;6140333;23;20020;-83
2021/05/11 06:22:08;;;;;;;10.82;4.90;;;14.80;87.90;;;;;;6140524;23;20029;-86
2021/05/11 06:24:36;;;;;;;11.45;5.18;;;14.70;88.40;;;;;;6140803;23;20019;-87
2021/05/11 06:27:06;;;;;;;8.43;4.78;;;14.60;88.40;;;;;;6143887;23;20030;-83
2021/05/11 06:29:35;;;;;;;9.43;4.60;;;14.60;88.40;;;;;;6167537;23;20212;-86
2021/05/11 06:32:03;;;;;;;8.97;4.43;;;14.70;88.60;;;;;;6140213;23;20041;-84
2021/05/11 06:34:30;;;;;;;9.23;4.15;;;14.90;88.20;;;;;;6140530;23;20022;-83
2021/05/11 06:36:58;;;;;;;7.15;3.58;;;15.10;87.20;;;;;;6137749;23;20058;-83
2021/05/11 06:39:27;;;;;;;7.68;3.97;;;15.10;86.80;;;;;;6164722;23;20028;-82
2021/05/11 06:41:57;;;;;;;6.90;3.38;;;15.20;86.90;;;;;;6140346;23;20029;-86
2021/05/11 06:44:31;;;;;;;7.90;3.53;;;15.30;86.20;;;;;;6166188;23;20013;-85
2021/05/11 06:47:23;;;;;;;8.93;3.67;;;15.40;85.70;;;;;;6141636;23;20029;-85
2021/05/11 06:52:54;;;;;;;8.23;4.30;;;15.40;85.40;;;;;;6165679;23;20323;-85
2021/05/11 06:55:21;;;;;;;8.27;3.90;;;15.50;85.40;;;;;;6139765;23;20025;-84
2021/05/11 06:57:50;;;;;;;8.27;3.88;;;15.50;84.70;;;;;;6163701;23;20190;-85
2021/05/11 07:00:19;;;;;;;6.93;3.28;;;15.50;85.40;;;;;;6158023;23;20072;-85
2021/05/11 07:02:46;;;;;;;8.35;3.80;;;15.50;85.20;;;;;;6191880;23;20029;-86
2021/05/11 07:05:13;;;;;;;8.15;3.85;;;15.30;85.40;;;;;;6166670;23;20241;-87
2021/05/11 07:07:43;;;;;;;7.32;3.72;;;15.20;86.70;;;;;;6166868;23;20028;-86
2021/05/11 07:10:19;;;;;;;7.57;3.80;;;15.40;86.00;;;;;;6192700;23;20031;-86
2021/05/11 07:15:32;;;;;;;8.35;3.70;;;15.50;85.00;;;;;;6191145;23;20016;-83
2021/05/11 07:18:13;;;;;;;7.47;3.75;;;15.40;85.40;;;;;;6169103;23;20029;-84
2021/05/11 07:20:41;;;;;;;6.47;3.83;;;15.40;85.80;;;;;;6191591;23;20032;-86
2021/05/11 07:23:09;;;;;;;6.57;3.15;;;15.50;85.60;;;;;;6193684;23;20208;-85
2021/05/11 07:25:41;;;;;;;7.90;3.38;;;15.50;85.80;;;;;;6214799;23;20028;-85
2021/05/11 07:28:33;;;;;;;6.93;3.70;;;15.40;85.80;;;;;;6190653;23;20192;-84
2021/05/11 07:31:03;;;;;;;7.22;3.33;;;15.60;85.70;;;;;;6190391;23;20017;-84
2021/05/11 07:33:35;;;;;;;7.93;2.88;;;15.90;85.00;;;;;;6191188;23;20048;-85
2021/05/11 07:36:05;;;;;;;7.72;3.50;;;16.00;84.60;;;;;;6189545;23;20211;-86
2021/05/11 07:38:32;;;;;;;5.82;3.10;;;16.20;83.50;;;;;;6194631;23;20197;-86
2021/05/11 07:41:00;;;;;;;6.00;3.33;;;16.30;83.40;;;;;;6194856;23;20025;-84
2021/05/11 07:43:36;;;;;;;6.68;3.20;;;16.70;81.70;;;;;;6195659;23;20040;-85
2021/05/11 07:46:19;;;;;;;8.73;3.20;;;16.80;81.20;;;;;;6194553;23;20024;-84
2021/05/11 08:30:05;;;;;;;5.38;2.55;;;17.30;78.90;;;;;;6100842;23;20017;31
2021/05/11 08:32:32;;;;;;;6.22;2.78;;;17.60;77.40;;;;;;6093590;23;20343;-61
2021/05/11 08:34:59;;;;;;;6.07;3.03;;;17.60;77.70;;;;;;6118083;23;21565;-62
2021/05/11 08:37:26;;;;;;;5.90;2.80;;;17.50;78.00;;;;;;6116212;23;20029;-63
2021/05/11 08:39:54;;;;;;;5.15;2.90;;;17.60;78.10;;;;;;6120064;23;21189;-62
2021/05/11 08:42:21;;;;;;;5.65;2.90;;;17.40;78.00;;;;;;6115359;23;20508;-63
2021/05/11 08:44:48;;;;;;;5.97;2.75;;;17.20;78.90;;;;;;6098606;23;20885;-61
2021/05/11 08:47:18;;;;;;;7.03;3.37;;;17.10;79.80;;;;;;6125195;23;21154;-63
2021/05/11 11:25:29;;;;;;;3.08;1.95;;;21.50;62.20;;;;;;6095994;23;21540;31
2021/05/11 11:27:56;;;;;;;3.20;1.80;;;22.20;59.80;;;;;;6118781;23;20943;-62
2021/05/11 11:30:23;;;;;;;3.25;1.20;;;22.10;60.70;;;;;;6117560;23;21079;-60
2021/05/11 11:32:50;;;;;;;2.75;1.33;;;22.60;58.00;;;;;;6114312;23;20862;-61
2021/05/11 11:35:19;;;;;;;2.97;1.55;;;22.90;57.50;;;;;;6114561;23;20026;-62
2021/05/11 11:37:58;;;;;;;2.13;1.05;;;22.80;58.00;;;;;;6118617;23;20080;-61
2021/05/11 11:40:26;;;;;;;2.70;1.67;;;22.70;57.00;;;;;;6096347;23;20030;-61
2021/05/11 11:42:54;;;;;;;4.15;1.80;;;22.60;57.10;;;;;;6138409;23;21447;-63
2021/05/11 11:45:26;;;;;;;3.78;1.48;;;21.60;60.30;;;;;;6116323;23;20030;-63
2021/05/11 11:47:57;;;;;;;2.60;1.23;;;21.60;61.00;;;;;;6112567;23;20206;-60
2021/05/11 11:50:24;;;;;;;2.70;1.38;;;21.90;60.10;;;;;;6111921;23;20021;-64
2021/05/11 11:58:45;;;;;;;2.20;1.13;;;21.20;61.40;;;;;;6099580;23;20029;-63
2021/05/11 12:01:13;;;;;;;4.93;1.40;;;21.10;62.00;;;;;;6106365;23;21424;-61
2021/05/11 12:03:40;;;;;;;2.58;1.50;;;21.10;61.90;;;;;;6123863;23;20026;-61
2021/05/11 12:06:09;;;;;;;2.20;1.38;;;20.60;63.50;;;;;;6107826;23;20631;-62
2021/05/11 12:08:36;;;;;;;2.65;1.23;;;20.80;64.00;;;;;;6111428;23;20032;-61
2021/05/11 12:11:06;;;;;;;2.85;1.15;;;20.90;63.20;;;;;;6115939;23;20457;-62
2021/05/11 12:13:33;;;;;;;;;;;20.90;62.70;;;;;;6113293;23;20099;-59
2021/05/11 12:52:39;;;;;;;2.30;1.30;;;20.00;67.10;;;;;;6269723;22;890306;-62
2021/05/11 12:55:17;;;;;;;1.15;0.75;;;19.70;67.40;;;;;;6232800;22;20019;-62
2021/05/11 12:58:39;;;;;;;2.30;1.07;;;19.90;66.40;;;;;;6245312;22;20357;31
2021/05/11 13:28:12;;;;;;;3.28;1.40;;;19.20;68.60;;;;;;6241489;22;20127;-64
2021/05/11 13:36:46;;;;;;;3.15;1.45;;;19.10;68.40;;;;;;6279302;22;19918;-63
2021/05/11 14:13:51;;;;;;;3.33;1.60;;;18.10;75.90;;;;;;6296626;22;20027;-64
2021/05/11 14:18:59;;;;;;;3.42;1.80;;;17.90;77.20;;;;;;5849017;22;21360;-62
2021/05/11 14:21:26;;;;;;;3.25;1.75;;;17.70;79.00;;;;;;5824497;22;20259;-63
2021/05/11 14:23:55;;;;;;;3.63;1.73;;;17.70;79.00;;;;;;5850990;22;20027;-63
2021/05/11 14:26:23;;;;;;;4.13;2.33;;;17.60;80.00;;;;;;5798402;22;20049;-64
2021/05/11 14:28:50;;;;;;;4.20;1.75;;;17.70;82.30;;;;;;5853627;22;20022;-63
2021/05/11 15:02:27;;;;;;;7.13;2.50;;;17.50;85.30;;;;;;5467968;23;20053;-63
2021/05/11 15:04:54;;;;;;;5.17;2.27;;;17.30;85.50;;;;;;5618788;23;20026;-62
2021/05/11 15:07:21;;;;;;;5.55;3.25;;;17.30;85.50;;;;;;5609667;23;20060;-64
2021/05/11 15:13:26;;;;;;;6.63;2.70;;;17.40;85.40;;;;;;5525422;23;20024;31
2021/05/11 15:15:56;;;;;;;8.57;3.28;;;17.40;84.60;;;;;;5607182;23;20027;31
2021/05/11 15:24:30;;;;;;;3.90;2.25;;;17.10;85.20;;;;;;5625303;23;20667;-62
2021/05/11 15:30:49;;;;;;;7.13;3.70;;;17.30;85.40;;;;;;5589940;23;20034;31
2021/05/11 15:33:16;;;;;;;3.80;2.15;;;17.20;84.60;;;;;;5592828;23;20027;-62
2021/05/11 15:35:45;;;;;;;5.05;2.10;;;17.20;84.80;;;;;;5582881;23;20126;31
2021/05/11 15:38:12;;;;;;;6.53;2.40;;;17.30;84.00;;;;;;5602051;23;20058;-61
2021/05/11 15:40:41;;;;;;;4.35;2.45;;;17.20;84.40;;;;;;5537138;23;20998;-64
2021/05/11 15:43:09;;;;;;;4.47;2.70;;;17.30;84.40;;;;;;5607200;23;21098;-63
2021/05/11 15:45:36;;;;;;;4.40;2.25;;;17.40;84.60;;;;;;5487521;23;20348;-63
2021/05/11 15:48:06;;;;;;;5.95;2.05;;;17.30;84.80;;;;;;5537538;23;20053;-64
2021/05/11 15:50:35;;;;;;;6.82;2.80;;;17.20;85.10;;;;;;5524824;23;20238;-65
2021/05/11 15:53:04;;;;;;;8.23;2.88;;;17.20;85.40;;;;;;5594296;23;20062;-63
2021/05/11 15:55:33;;;;;;;5.95;3.30;;;17.00;86.20;;;;;;5538559;23;21593;-63
2021/05/11 15:58:01;;;;;;;4.50;2.50;;;16.90;86.90;;;;;;5545871;23;20027;-64
2021/05/11 16:03:37;;;;;;;5.82;2.35;;;17.00;86.00;;;;;;5576478;23;20070;-63
2021/05/11 16:06:18;;;;;;;5.45;2.75;;;16.80;86.40;;;;;;5594608;23;20037;31
2021/05/11 16:08:46;;;;;;;5.40;2.55;;;16.70;86.80;;;;;;5584143;23;21285;-64
2021/05/11 16:11:13;;;;;;;4.95;2.50;;;16.60;87.60;;;;;;5616874;23;20347;-65
2021/05/11 16:13:40;;;;;;;7.07;2.28;;;16.60;87.80;;;;;;5499138;23;20845;-63
2021/05/11 16:16:07;;;;;;;4.70;2.45;;;16.50;88.20;;;;;;5587720;23;20059;-63
2021/05/11 16:18:36;;;;;;;5.15;3.00;;;16.50;88.10;;;;;;5597508;23;21072;-63
2021/05/11 16:21:03;;;;;;;5.82;3.10;;;16.60;88.10;;;;;;5480617;23;20057;-64
2021/05/11 16:23:31;;;;;;;5.32;2.42;;;16.50;88.20;;;;;;5607971;23;20120;-65
2021/05/11 16:25:59;;;;;;;6.25;2.97;;;16.40;88.80;;;;;;5603862;23;20158;-64
2021/05/11 16:28:26;;;;;;;5.95;2.42;;;16.30;88.90;;;;;;5543122;23;20125;-63
2021/05/11 16:30:53;;;;;;;8.25;2.75;;;16.30;88.80;;;;;;5612780;23;20054;-64
2021/05/11 16:33:20;;;;;;;4.80;2.23;;;16.40;88.90;;;;;;5610206;23;20140;-62
2021/05/11 16:35:47;;;;;;;4.65;1.70;;;16.40;88.30;;;;;;5622930;23;20140;-64
2021/05/11 16:38:14;;;;;;;9.35;2.30;;;16.40;88.60;;;;;;5550689;23;20129;-64
2021/05/11 16:40:41;;;;;;;3.97;1.50;;;16.30;88.20;;;;;;5543777;23;20056;-64
2021/05/11 16:43:10;;;;;;;3.22;1.48;;;16.10;86.80;;;;;;5587598;23;20104;-64
2021/05/11 16:45:37;;;;;;;3.58;1.25;;;15.70;86.60;;;;;;5596183;23;20485;-64
2021/05/11 16:48:06;;;;;;;3.22;1.50;;;15.50;87.50;;;;;;5595161;23;20039;-64
2021/05/11 16:50:35;;;;;;;2.33;1.40;;;15.40;87.50;;;;;;5515476;23;20109;-64
2021/05/11 16:56:16;;;;;;;4.85;1.40;;;15.20;88.30;;;;;;5631158;23;20023;31
2021/05/11 18:08:59;;;;;;;6.25;1.70;;;14.10;92.50;;;;;;5615261;23;20022;31
2021/05/11 18:11:26;;;;;;;5.50;1.73;;;14.10;93.00;;;;;;5642575;23;20867;-62
2021/05/11 18:14:23;;;;;;;4.75;1.77;;;14.10;93.00;;;;;;5598557;23;20090;-63
2021/05/11 18:22:54;;;;;;;3.40;1.15;;;14.00;92.90;;;;;;5631459;23;21905;-65
2021/05/11 18:25:22;;;;;;;4.53;1.50;;;14.00;93.10;;;;;;5625838;23;20033;-64
2021/05/11 18:27:50;;;;;;;2.35;1.10;;;13.90;93.20;;;;;;5587067;23;20039;-63
2021/05/11 19:09:58;;;;;;;3.90;1.10;;;13.90;92.90;;;;;;5575694;23;20268;-64
2021/05/11 19:12:25;;;;;;;2.90;1.13;;;14.00;93.00;;;;;;5653144;23;20042;-64
2021/05/11 19:14:52;;;;;;;2.95;1.42;;;13.90;93.10;;;;;;5657869;23;21450;-63
2021/05/11 19:17:19;;;;;;;2.42;1.33;;;13.90;93.40;;;;;;5556637;23;20248;-64
2021/05/11 19:19:48;;;;;;;4.15;1.38;;;13.90;93.00;;;;;;5639441;23;20458;-63
2021/05/11 19:22:15;;;;;;;3.13;1.38;;;13.90;93.20;;;;;;5654995;23;20070;-63
2021/05/11 19:24:42;;;;;;;3.42;1.38;;;13.90;93.20;;;;;;5638588;23;20059;-65
2021/05/11 19:27:09;;;;;;;3.83;1.50;;;13.90;93.40;;;;;;5637888;23;20095;-63
2021/05/11 19:29:37;;;;;;;1.95;1.20;;;13.90;92.80;;;;;;5632771;23;20111;-65
2021/05/11 19:32:06;;;;;;;3.08;1.45;;;13.90;92.80;;;;;;5579447;23;20114;-65
2021/05/11 19:34:33;;;;;;;3.05;1.27;;;13.90;92.90;;;;;;5638231;23;20033;-64
2021/05/11 19:37:03;;;;;;;2.15;1.10;;;13.90;92.90;;;;;;5634879;23;20038;-63
2021/05/11 19:39:33;;;;;;;5.75;1.40;;;13.80;92.90;;;;;;5650333;23;20022;-63
2021/05/11 19:47:50;;;;;;;2.90;1.35;;;13.80;92.70;;;;;;5637619;23;20047;-63
2021/05/11 19:50:17;;;;;;;4.75;1.85;;;13.80;93.30;;;;;;5610764;23;20787;-64
2021/05/11 19:52:45;;;;;;;2.90;1.65;;;13.80;93.20;;;;;;5661011;23;20078;-63
2021/05/11 19:55:13;;;;;;;4.25;1.55;;;13.70;93.50;;;;;;5733995;23;20125;-64
2021/05/11 19:57:40;;;;;;;2.97;1.50;;;13.70;93.40;;;;;;5612531;23;20053;-64
2021/05/11 20:00:08;;;;;;;3.15;1.77;;;13.70;93.70;;;;;;5488800;23;20027;-65
2021/05/11 20:02:36;;;;;;;4.75;1.60;;;13.70;93.50;;;;;;5596624;23;20038;-65
2021/05/11 20:05:09;;;;;;;4.30;1.48;;;13.70;93.60;;;;;;5490940;23;20392;-65
2021/05/11 20:07:36;;;;;;;3.60;1.75;;;13.70;93.90;;;;;;5617425;23;20030;-67
2021/05/11 20:10:05;;;;;;;3.50;1.83;;;13.70;94.00;;;;;;5585099;23;20055;-63
2021/05/11 20:12:32;;;;;;;3.75;1.48;;;13.70;93.80;;;;;;5579127;23;20994;-65
2021/05/11 20:15:01;;;;;;;2.60;1.55;;;13.70;94.10;;;;;;5577844;23;21065;-63
2021/05/11 20:23:21;;;;;;;4.70;1.55;;;13.70;94.10;;;;;;5834597;22;20417;-64
2021/05/11 20:25:48;;;;;;;4.05;1.67;;;13.80;94.00;;;;;;5885840;22;20052;-64
2021/05/11 20:28:16;;;;;;;5.07;2.00;;;13.90;93.50;;;;;;5813677;22;20116;-64
2021/05/11 20:30:44;;;;;;;4.13;2.00;;;14.00;93.00;;;;;;5863111;22;20027;-64
2021/05/11 20:33:13;;;;;;;4.83;2.10;;;13.90;93.40;;;;;;5860887;22;20125;-65
2021/05/11 20:35:43;;;;;;;2.97;1.43;;;13.90;93.40;;;;;;5845213;22;20021;-65
2021/05/11 20:38:10;;;;;;;4.95;1.90;;;13.90;93.20;;;;;;5839678;22;20098;-63
2021/05/11 20:40:39;;;;;;;3.25;1.70;;;13.90;93.30;;;;;;5786410;22;20127;-64
2021/05/11 20:43:06;;;;;;;5.88;1.92;;;13.80;93.50;;;;;;5744747;22;20072;-64
2021/05/11 20:45:33;;;;;;;5.13;1.83;;;13.70;93.50;;;;;;5803574;22;20029;-64
2021/05/11 20:48:02;;;;;;;4.30;2.00;;;13.80;93.50;;;;;;5830815;22;20329;-65
2021/05/11 20:50:32;;;;;;;4.90;2.42;;;13.90;93.30;;;;;;5868361;22;20235;-65
2021/05/11 20:53:00;;;;;;;4.13;2.22;;;13.80;93.20;;;;;;5728705;22;20944;-65
2021/05/11 20:58:56;;;;;;;4.63;2.25;;;13.70;93.50;;;;;;5636401;23;20052;-64
2021/05/11 21:01:23;;;;;;;6.28;3.15;;;13.70;93.70;;;;;;5725974;23;20093;-63
2021/05/11 21:03:51;;;;;;;7.43;2.97;;;13.80;93.30;;;;;;5750175;23;20029;-64
2021/05/11 21:06:18;;;;;;;5.33;2.90;;;13.70;93.70;;;;;;5753601;23;20066;-64
2021/05/11 21:08:45;;;;;;;5.85;3.42;;;13.70;93.70;;;;;;5725197;23;20051;-63
2021/05/11 21:11:13;;;;;;;7.18;2.95;;;13.70;93.50;;;;;;5732227;23;21209;-64
2021/05/11 21:13:40;;;;;;;7.53;3.13;;;13.80;93.00;;;;;;5731395;23;20047;-64
2021/05/11 21:16:10;;;;;;;6.65;3.20;;;13.70;93.50;;;;;;5675534;23;20058;-64
2021/05/11 21:18:38;;;;;;;6.90;2.85;;;13.70;93.60;;;;;;5757072;23;20029;-64
2021/05/11 21:21:05;;;;;;;9.60;3.22;;;13.70;93.40;;;;;;5671186;22;20067;-63
2021/05/11 21:23:33;;;;;;;5.82;3.13;;;13.80;93.00;;;;;;5764167;23;20031;-65
2021/05/11 21:26:00;;;;;;;5.30;2.80;;;13.70;92.90;;;;;;5733603;23;20025;-65
2021/05/11 21:31:41;;;;;;;8.70;3.35;;;13.70;92.80;;;;;;5744345;23;21585;31
2021/05/11 21:34:18;;;;;;;;;;;;;;;;;;;;;
2021/05/11 21:40:32;;;;;;;7.32;2.97;;;13.70;93.10;;;;;;5736511;23;20055;31
2021/05/11 21:42:59;;;;;;;6.93;3.42;;;13.60;93.20;;;;;;5694646;23;20115;-64
2021/05/11 21:45:26;;;;;;;9.68;3.63;;;13.70;93.50;;;;;;5644563;22;22775;-64
2021/05/11 21:47:54;;;;;;;6.15;3.55;;;13.70;92.90;;;;;;5752972;23;20025;-63
2021/05/11 21:50:22;;;;;;;6.55;3.55;;;13.70;93.10;;;;;;5676317;23;20055;-65
2021/05/11 21:52:50;;;;;;;6.43;4.07;;;13.60;93.20;;;;;;5634111;23;20055;-63
2021/05/11 21:55:18;;;;;;;6.95;3.50;;;13.60;93.20;;;;;;5658165;22;20188;-65
2021/05/11 21:57:45;;;;;;;6.45;3.50;;;13.60;93.40;;;;;;5690528;23;20085;-64
2021/05/11 22:03:27;;;;;;;9.70;4.50;;;13.60;93.40;;;;;;5749392;23;20021;31
2021/05/11 22:08:35;;;;;;;;;;;13.60;93.10;;;;;;5647500;23;20021;31
2021/05/11 22:11:03;;;;;;;9.70;5.00;;;13.50;93.50;;;;;;5769938;23;20145;-63
2021/05/11 22:13:32;;;;;;;8.10;4.50;;;13.50;93.70;;;;;;5663964;22;20024;-65